TOM8BW EGBB-HESH
Flight info
| Callsign | TOM8BW |
|---|---|
| Flight time | N/A |
| Altitude | 35000 |
| Route | ADMEX Y321 EMKUK UL612 COWLY Q70 BIG L15 MOTOX DCT RUCAC DCT LESDO DCT BUBLI DCT LUVAL DCT MIRGU DCT BEGAR DCT TRA DCT GAMSA DCT GEDSO DCT VEKEN DCT MSR DCT PINDO DCT PIKOS DCT GERMI DCT MIL/N0443F370 UL617 SIT UL607 PAXIS L607 NABSI P557 OBRAN L321 REXUM M872 SEMRU W727 SHM |
| Aircraft | B738/M-SDE2E3FGHIRWXY/LB1 |
Departure
| Time | 2026-05-06 18:40 |
|---|---|
| Airport | Birmingham Airport (EGBB) |
Arrival
| Time | N/A |
|---|---|
| Airport | Sharm El Sheikh International Airport (HESH) |
| Time | Latitude | Longitude | Altitude | Speed | Heading |
|---|---|---|---|---|---|
| 2026-05-06 17:51 | 52.45413 | -1.73920 | 322 ft | 0 kts | 326° |
| 2026-05-06 18:28 | 52.45401 | -1.73907 | 314 ft | 1 kts | 326° |
| 2026-05-06 18:28 | 52.45383 | -1.73884 | 321 ft | 4 kts | 308° |
| 2026-05-06 18:28 | 52.45372 | -1.73847 | 319 ft | 4 kts | 264° |
| 2026-05-06 18:29 | 52.45375 | -1.73829 | 320 ft | 4 kts | 236° |
| 2026-05-06 18:29 | 52.45367 | -1.73847 | 320 ft | 0 kts | 236° |
| 2026-05-06 18:33 | 52.45354 | -1.73878 | 321 ft | 7 kts | 236° |
| 2026-05-06 18:33 | 52.45326 | -1.73945 | 322 ft | 7 kts | 234° |
| 2026-05-06 18:33 | 52.45287 | -1.73984 | 322 ft | 7 kts | 178° |
| 2026-05-06 18:34 | 52.45270 | -1.73964 | 322 ft | 0 kts | 134° |
| 2026-05-06 18:34 | 52.45249 | -1.73939 | 322 ft | 9 kts | 144° |
| 2026-05-06 18:34 | 52.45173 | -1.73852 | 322 ft | 18 kts | 145° |
| 2026-05-06 18:34 | 52.45058 | -1.73753 | 321 ft | 19 kts | 162° |
| 2026-05-06 18:35 | 52.44952 | -1.73652 | 322 ft | 11 kts | 150° |
| 2026-05-06 18:35 | 52.44877 | -1.73659 | 321 ft | 11 kts | 197° |
| 2026-05-06 18:35 | 52.44804 | -1.73695 | 322 ft | 11 kts | 197° |
| 2026-05-06 18:35 | 52.44734 | -1.73728 | 323 ft | 10 kts | 186° |
| 2026-05-06 18:36 | 52.44669 | -1.73681 | 322 ft | 11 kts | 146° |
| 2026-05-06 18:36 | 52.44607 | -1.73612 | 322 ft | 11 kts | 145° |
| 2026-05-06 18:36 | 52.44548 | -1.73546 | 322 ft | 10 kts | 145° |
| 2026-05-06 18:36 | 52.44491 | -1.73481 | 321 ft | 10 kts | 146° |
| 2026-05-06 18:37 | 52.44434 | -1.73419 | 322 ft | 10 kts | 150° |
| 2026-05-06 18:37 | 52.44391 | -1.73407 | 322 ft | 9 kts | 198° |
| 2026-05-06 18:37 | 52.44386 | -1.73412 | 322 ft | 0 kts | 208° |
| 2026-05-06 18:37 | 52.44384 | -1.73413 | 322 ft | 2 kts | 210° |
| 2026-05-06 18:38 | 52.44356 | -1.73458 | 322 ft | 9 kts | 232° |
| 2026-05-06 18:38 | 52.44319 | -1.73542 | 323 ft | 9 kts | 234° |
| 2026-05-06 18:38 | 52.44325 | -1.73630 | 322 ft | 9 kts | 328° |
| 2026-05-06 18:38 | 52.44402 | -1.73712 | 322 ft | 31 kts | 326° |
| 2026-05-06 18:39 | 52.44773 | -1.74122 | 323 ft | 97 kts | 326° |
| 2026-05-06 18:39 | 52.45494 | -1.74922 | 322 ft | 152 kts | 328° |
| 2026-05-06 18:39 | 52.46470 | -1.75928 | 681 ft | 171 kts | 329° |
| 2026-05-06 18:40 | 52.48496 | -1.78198 | 1967 ft | 195 kts | 328° |
| 2026-05-06 18:40 | 52.49702 | -1.79479 | 2226 ft | 215 kts | 337° |
| 2026-05-06 18:40 | 52.51160 | -1.79887 | 2779 ft | 217 kts | 8° |
| 2026-05-06 18:40 | 52.52566 | -1.78993 | 3482 ft | 218 kts | 36° |
| 2026-05-06 18:41 | 52.53578 | -1.77125 | 4185 ft | 224 kts | 62° |
| 2026-05-06 18:41 | 52.53947 | -1.74623 | 4844 ft | 233 kts | 89° |
| 2026-05-06 18:41 | 52.53715 | -1.71934 | 5021 ft | 239 kts | 99° |
| 2026-05-06 18:41 | 52.53342 | -1.69283 | 5134 ft | 237 kts | 101° |
| 2026-05-06 18:42 | 52.52655 | -1.66825 | 5234 ft | 243 kts | 124° |
| 2026-05-06 18:42 | 52.51475 | -1.64644 | 5446 ft | 267 kts | 133° |
| 2026-05-06 18:42 | 52.50114 | -1.62482 | 5528 ft | 276 kts | 134° |
| 2026-05-06 18:42 | 52.48730 | -1.60300 | 5603 ft | 275 kts | 134° |
| 2026-05-06 18:43 | 52.47360 | -1.58111 | 5673 ft | 274 kts | 133° |
| 2026-05-06 18:43 | 52.45985 | -1.55954 | 5741 ft | 274 kts | 139° |
| 2026-05-06 18:43 | 52.44401 | -1.54214 | 5819 ft | 275 kts | 148° |
| 2026-05-06 18:43 | 52.42736 | -1.52654 | 5868 ft | 276 kts | 149° |
| 2026-05-06 18:44 | 52.41071 | -1.51074 | 5903 ft | 278 kts | 148° |
| 2026-05-06 18:44 | 52.39402 | -1.49454 | 5980 ft | 280 kts | 147° |
| 2026-05-06 18:44 | 52.37727 | -1.47808 | 6055 ft | 281 kts | 147° |
| 2026-05-06 18:44 | 52.36027 | -1.46227 | 6101 ft | 282 kts | 157° |
| 2026-05-06 18:45 | 52.34156 | -1.45464 | 6152 ft | 280 kts | 169° |
| 2026-05-06 18:45 | 52.32224 | -1.44956 | 6174 ft | 283 kts | 170° |
| 2026-05-06 18:45 | 52.30270 | -1.44448 | 6560 ft | 283 kts | 170° |
| 2026-05-06 18:45 | 52.28980 | -1.44107 | 7082 ft | 283 kts | 170° |
| 2026-05-06 18:46 | 52.26363 | -1.43403 | 7977 ft | 289 kts | 171° |
| 2026-05-06 18:46 | 52.24355 | -1.42853 | 8622 ft | 294 kts | 171° |
| 2026-05-06 18:46 | 52.22325 | -1.42292 | 9306 ft | 297 kts | 171° |
| 2026-05-06 18:46 | 52.20308 | -1.41729 | 10062 ft | 298 kts | 172° |
| 2026-05-06 18:47 | 52.18224 | -1.41148 | 10445 ft | 314 kts | 172° |
| 2026-05-06 18:47 | 52.15993 | -1.40526 | 10608 ft | 335 kts | 172° |
| 2026-05-06 18:47 | 52.13626 | -1.39864 | 10814 ft | 354 kts | 172° |
| 2026-05-06 18:47 | 52.11160 | -1.39172 | 11254 ft | 364 kts | 172° |
| 2026-05-06 18:48 | 52.08653 | -1.38468 | 11920 ft | 366 kts | 171° |
| 2026-05-06 18:48 | 52.06143 | -1.37762 | 12651 ft | 367 kts | 171° |
| 2026-05-06 18:48 | 52.03607 | -1.37051 | 13256 ft | 372 kts | 172° |
| 2026-05-06 18:48 | 52.01044 | -1.36335 | 13866 ft | 375 kts | 172° |
| 2026-05-06 18:49 | 51.98462 | -1.35558 | 14442 ft | 379 kts | 168° |
| 2026-05-06 18:49 | 51.95954 | -1.34144 | 15024 ft | 384 kts | 156° |
| 2026-05-06 18:49 | 51.93559 | -1.32219 | 15675 ft | 385 kts | 154° |
| 2026-05-06 18:49 | 51.91157 | -1.30237 | 16212 ft | 389 kts | 154° |
| 2026-05-06 18:50 | 51.88736 | -1.28242 | 16855 ft | 390 kts | 154° |
| 2026-05-06 18:50 | 51.86330 | -1.26276 | 17405 ft | 394 kts | 155° |
| 2026-05-06 18:50 | 51.83867 | -1.24281 | 17923 ft | 398 kts | 155° |
| 2026-05-06 18:50 | 51.81375 | -1.22276 | 18432 ft | 401 kts | 155° |
| 2026-05-06 18:51 | 51.78872 | -1.20268 | 18967 ft | 402 kts | 155° |
| 2026-05-06 18:51 | 51.76362 | -1.18261 | 19493 ft | 403 kts | 155° |
| 2026-05-06 18:51 | 51.73844 | -1.16249 | 19947 ft | 407 kts | 155° |
| 2026-05-06 18:51 | 51.71290 | -1.14211 | 20385 ft | 410 kts | 155° |
| 2026-05-06 18:52 | 51.68728 | -1.12169 | 20895 ft | 411 kts | 155° |
| 2026-05-06 18:52 | 51.67030 | -1.10817 | 21234 ft | 412 kts | 155° |
| 2026-05-06 18:52 | 51.64464 | -1.08721 | 21663 ft | 416 kts | 151° |
| 2026-05-06 18:52 | 51.62150 | -1.05880 | 22120 ft | 421 kts | 137° |
| 2026-05-06 18:53 | 51.60202 | -1.02349 | 22692 ft | 423 kts | 128° |
| 2026-05-06 18:53 | 51.58611 | -0.98360 | 23160 ft | 426 kts | 117° |
| 2026-05-06 18:53 | 51.57425 | -0.93966 | 23557 ft | 430 kts | 112° |
| 2026-05-06 18:53 | 51.56341 | -0.89474 | 23926 ft | 432 kts | 111° |
| 2026-05-06 18:54 | 51.55282 | -0.84941 | 24287 ft | 434 kts | 111° |
| 2026-05-06 18:54 | 51.54217 | -0.80384 | 24701 ft | 435 kts | 111° |
| 2026-05-06 18:54 | 51.53139 | -0.75831 | 25029 ft | 437 kts | 112° |
| 2026-05-06 18:54 | 51.52039 | -0.71251 | 25311 ft | 441 kts | 112° |
| 2026-05-06 18:55 | 51.50919 | -0.66646 | 25668 ft | 442 kts | 112° |
| 2026-05-06 18:55 | 51.49791 | -0.62053 | 26074 ft | 442 kts | 112° |
| 2026-05-06 18:55 | 51.48656 | -0.57451 | 26371 ft | 445 kts | 112° |
| 2026-05-06 18:55 | 51.47507 | -0.52813 | 26603 ft | 449 kts | 112° |
| 2026-05-06 18:56 | 51.46350 | -0.48157 | 26983 ft | 449 kts | 112° |
| 2026-05-06 18:56 | 51.45192 | -0.43502 | 27351 ft | 450 kts | 112° |
| 2026-05-06 18:56 | 51.44026 | -0.38825 | 27602 ft | 453 kts | 112° |
| 2026-05-06 18:56 | 51.42850 | -0.34115 | 27819 ft | 457 kts | 112° |
| 2026-05-06 18:57 | 51.41672 | -0.29410 | 28228 ft | 456 kts | 112° |
| 2026-05-06 18:57 | 51.40505 | -0.24756 | 28568 ft | 456 kts | 112° |
| 2026-05-06 18:57 | 51.39314 | -0.20016 | 28710 ft | 461 kts | 112° |
| 2026-05-06 18:57 | 51.38097 | -0.15182 | 28939 ft | 464 kts | 112° |
| 2026-05-06 18:58 | 51.36889 | -0.10397 | 29286 ft | 463 kts | 112° |
| 2026-05-06 18:58 | 51.35696 | -0.05675 | 29622 ft | 464 kts | 112° |
| 2026-05-06 18:58 | 51.34481 | -0.00883 | 29862 ft | 466 kts | 113° |
| 2026-05-06 18:58 | 51.33263 | 0.03917 | 30268 ft | 462 kts | 113° |
| 2026-05-06 18:59 | 51.32057 | 0.08658 | 30772 ft | 457 kts | 112° |
| 2026-05-06 18:59 | 51.30861 | 0.13348 | 31013 ft | 458 kts | 113° |
| 2026-05-06 18:59 | 51.29649 | 0.18091 | 31110 ft | 462 kts | 113° |
| 2026-05-06 18:59 | 51.28431 | 0.22842 | 31455 ft | 460 kts | 113° |
| 2026-05-06 19:00 | 51.27225 | 0.27542 | 31908 ft | 455 kts | 113° |
| 2026-05-06 19:00 | 51.26021 | 0.32223 | 32110 ft | 457 kts | 113° |
| 2026-05-06 19:00 | 51.24803 | 0.36945 | 32214 ft | 461 kts | 113° |
| 2026-05-06 19:00 | 51.23585 | 0.41664 | 32564 ft | 458 kts | 113° |
| 2026-05-06 19:01 | 51.22375 | 0.46339 | 32963 ft | 454 kts | 113° |
| 2026-05-06 19:01 | 51.21167 | 0.50998 | 33179 ft | 455 kts | 113° |
| 2026-05-06 19:01 | 51.19949 | 0.55683 | 33279 ft | 458 kts | 113° |
| 2026-05-06 19:01 | 51.18732 | 0.60357 | 33687 ft | 454 kts | 112° |
| 2026-05-06 19:02 | 51.17542 | 0.64921 | 34030 ft | 451 kts | 112° |
| 2026-05-06 19:02 | 51.16333 | 0.69543 | 34144 ft | 453 kts | 113° |
| 2026-05-06 19:02 | 51.15118 | 0.74181 | 34189 ft | 456 kts | 113° |
| 2026-05-06 19:02 | 51.13895 | 0.78837 | 34396 ft | 455 kts | 113° |
| 2026-05-06 19:03 | 51.12675 | 0.83474 | 34630 ft | 453 kts | 113° |
| 2026-05-06 19:03 | 51.10216 | 0.92795 | 34757 ft | 458 kts | 113° |
| 2026-05-06 19:03 | 51.08983 | 0.97453 | 34976 ft | 456 kts | 114° |
| 2026-05-06 19:04 | 51.07748 | 1.02112 | 34944 ft | 457 kts | 114° |
| 2026-05-06 19:04 | 51.05272 | 1.11428 | 34966 ft | 458 kts | 114° |
| 2026-05-06 19:05 | 51.02794 | 1.20702 | 34961 ft | 458 kts | 114° |
| 2026-05-06 19:05 | 51.00298 | 1.30007 | 34959 ft | 458 kts | 114° |
| 2026-05-06 19:06 | 50.97800 | 1.39293 | 34956 ft | 457 kts | 114° |